sensor_id;sensor_type;location;lat;lon;timestamp;pressure;altitude;pressure_sealevel;temperature;humidity
10115;BME280;5097;43.260;27.812;2023-06-22T00:00:55;100314.00;;;21.69;70.04
10115;BME280;5097;43.260;27.812;2023-06-22T00:03:39;100311.34;;;21.59;70.49
10115;BME280;5097;43.260;27.812;2023-06-22T00:06:25;100317.88;;;21.57;70.11
10115;BME280;5097;43.260;27.812;2023-06-22T00:09:09;100320.13;;;21.52;70.23
10115;BME280;5097;43.260;27.812;2023-06-22T00:11:53;100307.72;;;21.41;70.54
10115;BME280;5097;43.260;27.812;2023-06-22T00:14:37;100316.03;;;21.48;71.15
10115;BME280;5097;43.260;27.812;2023-06-22T00:17:21;100309.00;;;21.37;71.49
10115;BME280;5097;43.260;27.812;2023-06-22T00:20:07;100306.78;;;21.22;72.13
10115;BME280;5097;43.260;27.812;2023-06-22T00:22:54;100321.75;;;21.35;71.72
10115;BME280;5097;43.260;27.812;2023-06-22T00:25:38;100216.06;;;20.69;71.96
10115;BME280;5097;43.260;27.812;2023-06-22T00:28:23;100318.38;;;21.23;71.65
10115;BME280;5097;43.260;27.812;2023-06-22T00:31:09;100324.75;;;21.22;71.92
10115;BME280;5097;43.260;27.812;2023-06-22T00:33:53;100323.19;;;21.29;71.79
10115;BME280;5097;43.260;27.812;2023-06-22T00:36:37;100311.50;;;21.10;72.44
10115;BME280;5097;43.260;27.812;2023-06-22T00:39:24;100323.31;;;21.27;72.01
10115;BME280;5097;43.260;27.812;2023-06-22T00:42:08;100323.94;;;21.12;72.64
10115;BME280;5097;43.260;27.812;2023-06-22T00:44:53;100315.03;;;21.01;72.60
10115;BME280;5097;43.260;27.812;2023-06-22T00:47:39;100316.44;;;21.05;72.69
10115;BME280;5097;43.260;27.812;2023-06-22T00:50:26;100288.25;;;20.82;73.31
10115;BME280;5097;43.260;27.812;2023-06-22T00:53:12;100329.72;;;21.07;73.67
10115;BME280;5097;43.260;27.812;2023-06-22T00:55:58;100231.75;;;20.34;73.40
10115;BME280;5097;43.260;27.812;2023-06-22T00:58:43;100331.34;;;20.90;73.91
10115;BME280;5097;43.260;27.812;2023-06-22T01:01:26;100318.19;;;20.77;74.80
10115;BME280;5097;43.260;27.812;2023-06-22T01:04:11;100307.03;;;20.72;74.42
10115;BME280;5097;43.260;27.812;2023-06-22T01:07:17;100310.00;;;20.69;75.13
10115;BME280;5097;43.260;27.812;2023-06-22T01:10:07;100325.53;;;20.85;74.84
10115;BME280;5097;43.260;27.812;2023-06-22T01:12:56;100321.31;;;20.72;75.09
10115;BME280;5097;43.260;27.812;2023-06-22T01:15:45;100320.16;;;20.65;76.16
10115;BME280;5097;43.260;27.812;2023-06-22T01:18:35;100324.81;;;20.43;76.73
10115;BME280;5097;43.260;27.812;2023-06-22T01:21:21;100323.41;;;20.39;77.23
10115;BME280;5097;43.260;27.812;2023-06-22T01:24:15;100319.31;;;20.35;77.79
10115;BME280;5097;43.260;27.812;2023-06-22T01:27:09;100321.44;;;20.41;77.87
10115;BME280;5097;43.260;27.812;2023-06-22T01:30:01;100319.88;;;20.29;78.16
10115;BME280;5097;43.260;27.812;2023-06-22T01:32:51;100316.78;;;20.43;78.06
10115;BME280;5097;43.260;27.812;2023-06-22T01:35:37;100312.53;;;20.51;77.69
10115;BME280;5097;43.260;27.812;2023-06-22T01:38:21;100314.22;;;20.52;77.71
10115;BME280;5097;43.260;27.812;2023-06-22T01:41:06;100298.44;;;20.39;77.90
10115;BME280;5097;43.260;27.812;2023-06-22T01:43:51;100315.91;;;20.33;78.92
10115;BME280;5097;43.260;27.812;2023-06-22T01:46:38;100285.84;;;20.30;77.86
10115;BME280;5097;43.260;27.812;2023-06-22T01:49:23;100314.50;;;20.58;77.60
10115;BME280;5097;43.260;27.812;2023-06-22T01:52:07;100295.44;;;20.42;76.94
10115;BME280;5097;43.260;27.812;2023-06-22T01:54:51;100322.00;;;20.55;76.69
10115;BME280;5097;43.260;27.812;2023-06-22T01:57:35;100313.53;;;20.50;77.04
10115;BME280;5097;43.260;27.812;2023-06-22T02:00:22;100308.59;;;20.35;77.52
10115;BME280;5097;43.260;27.812;2023-06-22T02:03:16;100332.56;;;20.47;77.60
10115;BME280;5097;43.260;27.812;2023-06-22T02:06:05;100333.31;;;20.49;77.48
10115;BME280;5097;43.260;27.812;2023-06-22T02:08:55;100332.31;;;20.50;77.89
10115;BME280;5097;43.260;27.812;2023-06-22T02:11:42;100346.13;;;20.45;78.11
10115;BME280;5097;43.260;27.812;2023-06-22T02:14:29;100340.50;;;20.58;77.43
10115;BME280;5097;43.260;27.812;2023-06-22T02:17:14;100328.34;;;20.54;77.55
10115;BME280;5097;43.260;27.812;2023-06-22T02:20:01;100307.44;;;20.18;79.08
10115;BME280;5097;43.260;27.812;2023-06-22T02:22:51;100337.38;;;20.33;79.49
10115;BME280;5097;43.260;27.812;2023-06-22T02:25:35;100333.13;;;20.31;79.84
10115;BME280;5097;43.260;27.812;2023-06-22T02:28:19;100314.78;;;20.26;79.29
10115;BME280;5097;43.260;27.812;2023-06-22T02:31:03;100335.84;;;20.40;79.34
10115;BME280;5097;43.260;27.812;2023-06-22T02:33:47;100342.63;;;20.35;80.02
10115;BME280;5097;43.260;27.812;2023-06-22T02:36:35;100319.47;;;20.34;79.54
10115;BME280;5097;43.260;27.812;2023-06-22T02:39:20;100342.75;;;20.53;79.37
10115;BME280;5097;43.260;27.812;2023-06-22T02:42:05;100343.47;;;20.35;80.01
10115;BME280;5097;43.260;27.812;2023-06-22T02:44:50;100352.78;;;20.31;80.79
10115;BME280;5097;43.260;27.812;2023-06-22T02:47:35;100335.69;;;20.32;80.50
10115;BME280;5097;43.260;27.812;2023-06-22T02:50:19;100354.88;;;20.37;80.74
10115;BME280;5097;43.260;27.812;2023-06-22T02:53:05;100360.25;;;20.37;80.82
10115;BME280;5097;43.260;27.812;2023-06-22T02:55:53;100368.47;;;20.46;80.59
10115;BME280;5097;43.260;27.812;2023-06-22T02:58:37;100363.50;;;20.51;80.06
10115;BME280;5097;43.260;27.812;2023-06-22T03:01:26;100377.78;;;20.41;80.91
10115;BME280;5097;43.260;27.812;2023-06-22T03:04:13;100334.28;;;20.28;80.82
10115;BME280;5097;43.260;27.812;2023-06-22T03:06:58;100364.91;;;20.45;80.90
10115;BME280;5097;43.260;27.812;2023-06-22T03:09:46;100367.03;;;20.22;81.89
10115;BME280;5097;43.260;27.812;2023-06-22T03:12:30;100365.03;;;20.24;82.15
10115;BME280;5097;43.260;27.812;2023-06-22T03:15:15;100366.63;;;20.46;81.07
10115;BME280;5097;43.260;27.812;2023-06-22T03:17:59;100367.06;;;20.41;80.45
10115;BME280;5097;43.260;27.812;2023-06-22T03:20:44;100361.41;;;20.64;79.52
10115;BME280;5097;43.260;27.812;2023-06-22T03:23:28;100361.41;;;20.64;78.68
10115;BME280;5097;43.260;27.812;2023-06-22T03:26:16;100375.28;;;20.69;78.00
10115;BME280;5097;43.260;27.812;2023-06-22T03:29:01;100373.03;;;20.74;76.47
10115;BME280;5097;43.260;27.812;2023-06-22T03:31:46;100365.84;;;20.75;75.99
10115;BME280;5097;43.260;27.812;2023-06-22T03:34:30;100378.94;;;20.88;75.05
10115;BME280;5097;43.260;27.812;2023-06-22T03:37:17;100384.88;;;21.01;74.55
10115;BME280;5097;43.260;27.812;2023-06-22T03:40:02;100382.31;;;21.19;73.71
10115;BME280;5097;43.260;27.812;2023-06-22T03:42:49;100385.41;;;21.24;73.16
10115;BME280;5097;43.260;27.812;2023-06-22T03:45:33;100383.66;;;21.53;71.87
10115;BME280;5097;43.260;27.812;2023-06-22T03:48:17;100395.44;;;21.22;72.91
10115;BME280;5097;43.260;27.812;2023-06-22T03:51:02;100377.75;;;21.39;72.00
10115;BME280;5097;43.260;27.812;2023-06-22T03:53:46;100389.97;;;21.71;71.10
10115;BME280;5097;43.260;27.812;2023-06-22T03:56:30;100389.53;;;21.76;70.67
10115;BME280;5097;43.260;27.812;2023-06-22T03:59:16;100384.72;;;21.80;70.30
10115;BME280;5097;43.260;27.812;2023-06-22T04:02:00;100397.06;;;22.00;69.19
10115;BME280;5097;43.260;27.812;2023-06-22T04:04:44;100392.50;;;22.01;68.54
10115;BME280;5097;43.260;27.812;2023-06-22T04:07:28;100390.47;;;22.94;65.82
10115;BME280;5097;43.260;27.812;2023-06-22T04:10:12;100383.88;;;23.59;62.58
10115;BME280;5097;43.260;27.812;2023-06-22T04:13:01;100396.72;;;23.39;63.14
10115;BME280;5097;43.260;27.812;2023-06-22T04:15:46;100378.19;;;22.92;63.74
10115;BME280;5097;43.260;27.812;2023-06-22T04:18:30;100392.16;;;22.96;63.83
10115;BME280;5097;43.260;27.812;2023-06-22T04:21:14;100410.19;;;22.77;65.13
10115;BME280;5097;43.260;27.812;2023-06-22T04:23:58;100403.41;;;22.55;65.97
10115;BME280;5097;43.260;27.812;2023-06-22T04:26:42;100395.09;;;22.48;66.48
10115;BME280;5097;43.260;27.812;2023-06-22T04:29:28;100396.34;;;22.54;66.27
10115;BME280;5097;43.260;27.812;2023-06-22T04:32:14;100400.56;;;22.74;66.09
10115;BME280;5097;43.260;27.812;2023-06-22T04:34:58;100404.47;;;22.98;65.81
10115;BME280;5097;43.260;27.812;2023-06-22T04:37:45;100404.81;;;23.39;64.82
10115;BME280;5097;43.260;27.812;2023-06-22T04:40:31;100400.00;;;23.25;64.77
10115;BME280;5097;43.260;27.812;2023-06-22T04:43:14;100415.19;;;23.52;64.17
10115;BME280;5097;43.260;27.812;2023-06-22T04:45:58;100412.28;;;23.80;64.10
10115;BME280;5097;43.260;27.812;2023-06-22T04:48:47;100414.66;;;23.75;63.16
10115;BME280;5097;43.260;27.812;2023-06-22T04:51:31;100419.66;;;23.96;62.73
10115;BME280;5097;43.260;27.812;2023-06-22T04:54:15;100426.09;;;23.77;63.72
10115;BME280;5097;43.260;27.812;2023-06-22T04:56:59;100405.75;;;23.30;64.72
10115;BME280;5097;43.260;27.812;2023-06-22T04:59:43;100425.00;;;23.62;64.16
10115;BME280;5097;43.260;27.812;2023-06-22T05:02:27;100423.56;;;23.49;64.99
10115;BME280;5097;43.260;27.812;2023-06-22T05:05:16;100404.78;;;23.92;63.89
10115;BME280;5097;43.260;27.812;2023-06-22T05:08:01;100427.44;;;23.99;63.78
10115;BME280;5097;43.260;27.812;2023-06-22T05:10:45;100418.97;;;23.68;64.63
10115;BME280;5097;43.260;27.812;2023-06-22T05:13:46;100426.69;;;23.63;64.93
10115;BME280;5097;43.260;27.812;2023-06-22T05:16:30;100432.03;;;23.81;64.94
10115;BME280;5097;43.260;27.812;2023-06-22T05:19:14;100437.59;;;23.53;64.92
10115;BME280;5097;43.260;27.812;2023-06-22T05:22:00;100417.31;;;23.40;64.97
10115;BME280;5097;43.260;27.812;2023-06-22T05:24:44;100413.03;;;23.64;64.51
10115;BME280;5097;43.260;27.812;2023-06-22T05:27:27;100434.06;;;23.87;63.59
10115;BME280;5097;43.260;27.812;2023-06-22T05:30:12;100420.25;;;24.24;63.05
10115;BME280;5097;43.260;27.812;2023-06-22T05:32:56;100425.22;;;24.46;63.09
10115;BME280;5097;43.260;27.812;2023-06-22T05:35:40;100437.69;;;24.38;61.40
10115;BME280;5097;43.260;27.812;2023-06-22T05:38:25;100426.22;;;24.44;60.45
10115;BME280;5097;43.260;27.812;2023-06-22T05:41:09;100432.91;;;24.67;61.25
10115;BME280;5097;43.260;27.812;2023-06-22T05:43:53;100422.78;;;24.85;59.10
10115;BME280;5097;43.260;27.812;2023-06-22T05:46:39;100418.38;;;24.68;58.71
10115;BME280;5097;43.260;27.812;2023-06-22T05:49:23;100435.81;;;25.06;58.40
10115;BME280;5097;43.260;27.812;2023-06-22T05:52:12;100425.34;;;25.20;58.60
10115;BME280;5097;43.260;27.812;2023-06-22T05:54:57;100423.28;;;25.30;56.32
10115;BME280;5097;43.260;27.812;2023-06-22T05:57:41;100397.28;;;25.04;56.60
10115;BME280;5097;43.260;27.812;2023-06-22T06:00:25;100417.22;;;25.20;57.42
10115;BME280;5097;43.260;27.812;2023-06-22T06:03:10;100429.38;;;25.16;56.45
10115;BME280;5097;43.260;27.812;2023-06-22T06:05:57;100430.22;;;25.41;57.27
10115;BME280;5097;43.260;27.812;2023-06-22T06:08:41;100417.53;;;25.25;56.97
10115;BME280;5097;43.260;27.812;2023-06-22T06:11:27;100407.06;;;25.38;56.50
10115;BME280;5097;43.260;27.812;2023-06-22T06:14:11;100428.28;;;25.74;56.64
10115;BME280;5097;43.260;27.812;2023-06-22T06:16:55;100429.63;;;25.79;56.33
10115;BME280;5097;43.260;27.812;2023-06-22T06:19:38;100429.16;;;25.75;55.52
10115;BME280;5097;43.260;27.812;2023-06-22T06:22:22;100413.25;;;25.80;55.67
10115;BME280;5097;43.260;27.812;2023-06-22T06:25:07;100420.47;;;25.96;55.17
10115;BME280;5097;43.260;27.812;2023-06-22T06:27:52;100437.72;;;26.03;53.26
10115;BME280;5097;43.260;27.812;2023-06-22T06:30:37;100428.59;;;25.88;53.52
10115;BME280;5097;43.260;27.812;2023-06-22T06:33:21;100429.44;;;25.88;54.24
10115;BME280;5097;43.260;27.812;2023-06-22T06:36:07;100430.06;;;25.99;53.55
10115;BME280;5097;43.260;27.812;2023-06-22T06:38:52;100432.78;;;26.07;53.31
10115;BME280;5097;43.260;27.812;2023-06-22T06:41:35;100440.41;;;26.03;52.50
10115;BME280;5097;43.260;27.812;2023-06-22T06:44:26;100434.22;;;26.26;51.52
10115;BME280;5097;43.260;27.812;2023-06-22T06:47:10;100442.13;;;26.36;50.90
10115;BME280;5097;43.260;27.812;2023-06-22T06:49:54;100438.03;;;26.40;51.35
10115;BME280;5097;43.260;27.812;2023-06-22T06:52:38;100433.38;;;26.57;51.11
10115;BME280;5097;43.260;27.812;2023-06-22T06:55:22;100436.78;;;26.82;51.82
10115;BME280;5097;43.260;27.812;2023-06-22T06:58:07;100431.38;;;26.51;52.05
10115;BME280;5097;43.260;27.812;2023-06-22T07:00:54;100435.75;;;26.29;51.98
10115;BME280;5097;43.260;27.812;2023-06-22T07:03:38;100428.00;;;26.49;51.09
10115;BME280;5097;43.260;27.812;2023-06-22T07:06:22;100442.59;;;26.79;50.76
10115;BME280;5097;43.260;27.812;2023-06-22T07:09:11;100453.00;;;26.59;51.30
10115;BME280;5097;43.260;27.812;2023-06-22T07:11:55;100449.78;;;26.87;50.89
10115;BME280;5097;43.260;27.812;2023-06-22T07:14:39;100454.69;;;26.91;49.94
10115;BME280;5097;43.260;27.812;2023-06-22T07:17:24;100434.84;;;26.91;49.13
10115;BME280;5097;43.260;27.812;2023-06-22T07:20:10;100446.91;;;27.12;48.73
10115;BME280;5097;43.260;27.812;2023-06-22T07:22:55;100452.41;;;27.03;48.36
10115;BME280;5097;43.260;27.812;2023-06-22T07:25:38;100449.81;;;27.10;48.49
10115;BME280;5097;43.260;27.812;2023-06-22T07:28:23;100433.19;;;27.28;48.48
10115;BME280;5097;43.260;27.812;2023-06-22T07:31:07;100441.50;;;27.50;46.86
10115;BME280;5097;43.260;27.812;2023-06-22T07:33:53;100456.66;;;27.21;47.51
10115;BME280;5097;43.260;27.812;2023-06-22T07:36:37;100449.44;;;27.13;47.59
10115;BME280;5097;43.260;27.812;2023-06-22T07:39:21;100419.50;;;27.06;47.47
10115;BME280;5097;43.260;27.812;2023-06-22T07:42:08;100444.78;;;27.45;47.58
10115;BME280;5097;43.260;27.812;2023-06-22T07:44:53;100437.75;;;27.51;46.54
10115;BME280;5097;43.260;27.812;2023-06-22T07:47:37;100449.47;;;27.66;47.93
10115;BME280;5097;43.260;27.812;2023-06-22T07:50:23;100453.00;;;27.52;48.46
10115;BME280;5097;43.260;27.812;2023-06-22T07:53:07;100452.56;;;27.25;47.83
10115;BME280;5097;43.260;27.812;2023-06-22T07:55:51;100461.63;;;27.32;48.76
10115;BME280;5097;43.260;27.812;2023-06-22T07:58:35;100452.03;;;27.45;47.14
10115;BME280;5097;43.260;27.812;2023-06-22T08:01:19;100440.66;;;27.94;47.82
10115;BME280;5097;43.260;27.812;2023-06-22T08:04:03;100444.97;;;27.73;47.13
10115;BME280;5097;43.260;27.812;2023-06-22T08:06:50;100435.16;;;27.72;47.61
10115;BME280;5097;43.260;27.812;2023-06-22T08:09:34;100448.91;;;27.86;47.42
10115;BME280;5097;43.260;27.812;2023-06-22T08:12:19;100448.06;;;27.85;45.27
10115;BME280;5097;43.260;27.812;2023-06-22T08:15:03;100448.34;;;27.75;45.91
10115;BME280;5097;43.260;27.812;2023-06-22T08:17:48;100441.25;;;27.74;45.54
10115;BME280;5097;43.260;27.812;2023-06-22T08:20:32;100442.56;;;27.79;45.17
10115;BME280;5097;43.260;27.812;2023-06-22T08:23:17;100434.88;;;27.97;45.31
10115;BME280;5097;43.260;27.812;2023-06-22T08:26:01;100430.88;;;28.45;44.63
10115;BME280;5097;43.260;27.812;2023-06-22T08:28:45;100427.34;;;28.29;44.34
10115;BME280;5097;43.260;27.812;2023-06-22T08:31:32;100434.00;;;28.41;43.80
10115;BME280;5097;43.260;27.812;2023-06-22T08:34:17;100431.59;;;27.72;43.01
10115;BME280;5097;43.260;27.812;2023-06-22T08:37:04;100370.47;;;27.91;43.71
10115;BME280;5097;43.260;27.812;2023-06-22T08:39:50;100433.72;;;28.36;43.29
10115;BME280;5097;43.260;27.812;2023-06-22T08:42:34;100435.78;;;28.56;42.06
10115;BME280;5097;43.260;27.812;2023-06-22T08:45:19;100426.28;;;28.45;42.16
10115;BME280;5097;43.260;27.812;2023-06-22T08:48:03;100444.97;;;28.70;42.97
10115;BME280;5097;43.260;27.812;2023-06-22T08:50:47;100405.13;;;28.62;41.79
10115;BME280;5097;43.260;27.812;2023-06-22T08:53:31;100436.47;;;28.58;42.86
10115;BME280;5097;43.260;27.812;2023-06-22T08:56:19;100401.50;;;28.33;41.26
10115;BME280;5097;43.260;27.812;2023-06-22T08:59:03;100412.88;;;28.43;41.42
10115;BME280;5097;43.260;27.812;2023-06-22T09:01:50;100423.50;;;28.97;39.93
10115;BME280;5097;43.260;27.812;2023-06-22T09:04:34;100426.41;;;28.95;39.62
10115;BME280;5097;43.260;27.812;2023-06-22T09:07:18;100419.28;;;28.94;39.58
10115;BME280;5097;43.260;27.812;2023-06-22T09:10:05;100419.31;;;29.51;39.50
10115;BME280;5097;43.260;27.812;2023-06-22T09:12:51;100384.50;;;29.11;39.17
10115;BME280;5097;43.260;27.812;2023-06-22T09:15:35;100417.94;;;29.90;38.81
10115;BME280;5097;43.260;27.812;2023-06-22T09:18:19;100394.69;;;30.49;37.42
10115;BME280;5097;43.260;27.812;2023-06-22T09:21:04;100414.66;;;30.90;35.32
10115;BME280;5097;43.260;27.812;2023-06-22T09:23:48;100402.19;;;30.40;36.19
10115;BME280;5097;43.260;27.812;2023-06-22T09:26:33;100424.59;;;30.36;35.51
10115;BME280;5097;43.260;27.812;2023-06-22T09:29:19;100423.28;;;30.87;38.86
10115;BME280;5097;43.260;27.812;2023-06-22T09:32:03;100399.75;;;31.66;38.90
10115;BME280;5097;43.260;27.812;2023-06-22T09:34:47;100419.94;;;31.12;40.49
10115;BME280;5097;43.260;27.812;2023-06-22T09:37:31;100416.97;;;31.60;40.77
10115;BME280;5097;43.260;27.812;2023-06-22T09:40:16;100420.78;;;31.39;41.04
10115;BME280;5097;43.260;27.812;2023-06-22T09:43:00;100424.88;;;31.95;39.59
10115;BME280;5097;43.260;27.812;2023-06-22T09:45:45;100406.00;;;30.46;41.07
10115;BME280;5097;43.260;27.812;2023-06-22T09:48:29;100427.88;;;30.86;41.52
10115;BME280;5097;43.260;27.812;2023-06-22T09:51:13;100435.47;;;31.31;40.66
10115;BME280;5097;43.260;27.812;2023-06-22T09:53:59;100429.75;;;30.66;42.60
10115;BME280;5097;43.260;27.812;2023-06-22T09:56:43;100426.03;;;31.07;42.54
10115;BME280;5097;43.260;27.812;2023-06-22T09:59:27;100434.22;;;31.07;42.08
10115;BME280;5097;43.260;27.812;2023-06-22T10:02:13;100434.59;;;30.70;44.90
10115;BME280;5097;43.260;27.812;2023-06-22T10:04:57;100429.94;;;30.64;45.35
10115;BME280;5097;43.260;27.812;2023-06-22T10:07:41;100426.56;;;30.62;45.16
10115;BME280;5097;43.260;27.812;2023-06-22T10:10:27;100422.03;;;31.03;44.01
10115;BME280;5097;43.260;27.812;2023-06-22T10:13:11;100409.56;;;30.47;45.98
10115;BME280;5097;43.260;27.812;2023-06-22T10:15:55;100435.72;;;30.34;46.34
10115;BME280;5097;43.260;27.812;2023-06-22T10:18:41;100441.97;;;30.28;47.06
10115;BME280;5097;43.260;27.812;2023-06-22T10:21:24;100451.16;;;30.20;46.94
10115;BME280;5097;43.260;27.812;2023-06-22T10:24:09;100439.91;;;31.05;44.63
10115;BME280;5097;43.260;27.812;2023-06-22T10:26:53;100443.63;;;29.81;47.98
10115;BME280;5097;43.260;27.812;2023-06-22T10:29:37;100440.63;;;30.04;47.46
10115;BME280;5097;43.260;27.812;2023-06-22T10:32:21;100434.88;;;29.57;47.97
10115;BME280;5097;43.260;27.812;2023-06-22T10:35:08;100440.22;;;30.14;47.43
10115;BME280;5097;43.260;27.812;2023-06-22T10:37:54;100438.09;;;30.02;48.49
10115;BME280;5097;43.260;27.812;2023-06-22T10:40:38;100436.84;;;30.47;46.84
10115;BME280;5097;43.260;27.812;2023-06-22T10:43:22;100434.19;;;31.00;45.84
10115;BME280;5097;43.260;27.812;2023-06-22T10:46:07;100420.81;;;31.05;45.13
10115;BME280;5097;43.260;27.812;2023-06-22T10:48:51;100404.19;;;30.87;44.33
10115;BME280;5097;43.260;27.812;2023-06-22T10:51:39;100421.16;;;30.89;46.42
10115;BME280;5097;43.260;27.812;2023-06-22T10:54:24;100416.81;;;31.15;43.67
10115;BME280;5097;43.260;27.812;2023-06-22T10:57:08;100411.53;;;31.33;44.46
10115;BME280;5097;43.260;27.812;2023-06-22T10:59:52;100395.59;;;31.17;43.35
10115;BME280;5097;43.260;27.812;2023-06-22T11:02:36;100414.38;;;31.92;41.95
10115;BME280;5097;43.260;27.812;2023-06-22T11:05:20;100412.03;;;32.48;40.56
10115;BME280;5097;43.260;27.812;2023-06-22T11:08:05;100406.66;;;31.75;41.59
10115;BME280;5097;43.260;27.812;2023-06-22T11:10:51;100361.34;;;31.41;42.53
10115;BME280;5097;43.260;27.812;2023-06-22T11:13:35;100411.47;;;30.53;45.09
10115;BME280;5097;43.260;27.812;2023-06-22T11:16:19;100415.19;;;30.38;45.62
10115;BME280;5097;43.260;27.812;2023-06-22T11:19:04;100397.47;;;29.37;48.18
10115;BME280;5097;43.260;27.812;2023-06-22T11:21:49;100404.06;;;29.85;47.43
10115;BME280;5097;43.260;27.812;2023-06-22T11:24:34;100409.41;;;30.82;46.47
10115;BME280;5097;43.260;27.812;2023-06-22T11:27:18;100410.41;;;30.54;46.61
10115;BME280;5097;43.260;27.812;2023-06-22T11:30:03;100393.63;;;29.95;47.34
10115;BME280;5097;43.260;27.812;2023-06-22T11:32:47;100411.94;;;29.73;48.93
10115;BME280;5097;43.260;27.812;2023-06-22T11:35:31;100422.16;;;29.99;48.63
10115;BME280;5097;43.260;27.812;2023-06-22T11:38:15;100413.16;;;29.35;50.08
10115;BME280;5097;43.260;27.812;2023-06-22T11:41:00;100412.00;;;29.23;50.04
10115;BME280;5097;43.260;27.812;2023-06-22T11:43:44;100401.63;;;29.33;50.33
10115;BME280;5097;43.260;27.812;2023-06-22T11:46:28;100403.13;;;29.36;50.38
10115;BME280;5097;43.260;27.812;2023-06-22T11:49:12;100410.44;;;30.05;49.49
10115;BME280;5097;43.260;27.812;2023-06-22T11:51:56;100399.03;;;30.30;48.68
10115;BME280;5097;43.260;27.812;2023-06-22T11:54:40;100409.31;;;30.41;47.30
10115;BME280;5097;43.260;27.812;2023-06-22T11:57:26;100400.94;;;29.88;48.91
10115;BME280;5097;43.260;27.812;2023-06-22T12:00:11;100399.59;;;30.19;48.83
10115;BME280;5097;43.260;27.812;2023-06-22T12:03:00;100406.09;;;29.76;49.32
10115;BME280;5097;43.260;27.812;2023-06-22T12:05:44;100386.75;;;30.54;47.70
10115;BME280;5097;43.260;27.812;2023-06-22T12:08:29;100400.94;;;30.43;46.74
10115;BME280;5097;43.260;27.812;2023-06-22T12:11:12;100395.78;;;30.82;47.38
10115;BME280;5097;43.260;27.812;2023-06-22T12:13:58;100392.25;;;31.28;47.21
10115;BME280;5097;43.260;27.812;2023-06-22T12:16:44;100401.88;;;30.97;47.16
10115;BME280;5097;43.260;27.812;2023-06-22T12:19:28;100390.09;;;30.63;48.48
10115;BME280;5097;43.260;27.812;2023-06-22T12:22:12;100399.19;;;30.22;48.49
10115;BME280;5097;43.260;27.812;2023-06-22T12:24:55;100393.63;;;29.95;47.96
10115;BME280;5097;43.260;27.812;2023-06-22T12:27:39;100382.78;;;30.08;48.07
10115;BME280;5097;43.260;27.812;2023-06-22T12:30:25;100400.59;;;30.04;49.02
10115;BME280;5097;43.260;27.812;2023-06-22T12:33:10;100399.50;;;30.54;47.96
10115;BME280;5097;43.260;27.812;2023-06-22T12:35:54;100405.13;;;30.39;48.85
10115;BME280;5097;43.260;27.812;2023-06-22T12:38:38;100396.25;;;29.82;49.71
10115;BME280;5097;43.260;27.812;2023-06-22T12:41:22;100396.84;;;29.70;50.35
10115;BME280;5097;43.260;27.812;2023-06-22T12:44:06;100387.53;;;29.51;51.61
10115;BME280;5097;43.260;27.812;2023-06-22T12:46:51;100400.22;;;29.16;52.32
10115;BME280;5097;43.260;27.812;2023-06-22T12:49:35;100397.56;;;29.51;51.23
10115;BME280;5097;43.260;27.812;2023-06-22T12:52:19;100399.13;;;30.08;50.30
10115;BME280;5097;43.260;27.812;2023-06-22T12:55:04;100396.22;;;29.40;51.44
10115;BME280;5097;43.260;27.812;2023-06-22T12:57:48;100399.66;;;29.49;50.92
10115;BME280;5097;43.260;27.812;2023-06-22T13:00:32;100394.66;;;30.42;48.72
10115;BME280;5097;43.260;27.812;2023-06-22T13:03:17;100395.31;;;29.96;48.62
10115;BME280;5097;43.260;27.812;2023-06-22T13:06:02;100392.81;;;30.56;47.66
10115;BME280;5097;43.260;27.812;2023-06-22T13:08:46;100398.25;;;30.56;46.72
10115;BME280;5097;43.260;27.812;2023-06-22T13:11:33;100393.88;;;30.62;45.87
10115;BME280;5097;43.260;27.812;2023-06-22T13:14:17;100402.13;;;30.20;46.57
10115;BME280;5097;43.260;27.812;2023-06-22T13:17:01;100396.91;;;29.84;47.67
10115;BME280;5097;43.260;27.812;2023-06-22T13:19:46;100398.34;;;30.15;47.63
10115;BME280;5097;43.260;27.812;2023-06-22T13:22:31;100393.34;;;29.48;48.34
10115;BME280;5097;43.260;27.812;2023-06-22T13:25:16;100399.41;;;29.79;46.77
10115;BME280;5097;43.260;27.812;2023-06-22T13:28:02;100391.81;;;29.67;46.08
10115;BME280;5097;43.260;27.812;2023-06-22T13:30:49;100388.31;;;30.35;44.38
10115;BME280;5097;43.260;27.812;2023-06-22T13:33:33;100385.09;;;30.73;44.81
10115;BME280;5097;43.260;27.812;2023-06-22T13:36:18;100384.06;;;31.01;43.67
10115;BME280;5097;43.260;27.812;2023-06-22T13:39:02;100379.03;;;31.97;39.25
10115;BME280;5097;43.260;27.812;2023-06-22T13:41:46;100377.31;;;32.09;40.57
10115;BME280;5097;43.260;27.812;2023-06-22T13:44:30;100382.34;;;30.60;40.61
10115;BME280;5097;43.260;27.812;2023-06-22T13:47:14;100380.09;;;31.24;40.53
10115;BME280;5097;43.260;27.812;2023-06-22T13:49:58;100386.34;;;31.38;40.35
10115;BME280;5097;43.260;27.812;2023-06-22T13:52:47;100386.84;;;31.94;37.82
10115;BME280;5097;43.260;27.812;2023-06-22T13:55:31;100379.34;;;31.75;38.15
10115;BME280;5097;43.260;27.812;2023-06-22T13:58:15;100379.13;;;32.29;38.66
10115;BME280;5097;43.260;27.812;2023-06-22T14:00:59;100379.31;;;32.66;37.58
10115;BME280;5097;43.260;27.812;2023-06-22T14:03:43;100386.06;;;32.96;35.58
10115;BME280;5097;43.260;27.812;2023-06-22T14:06:28;100361.41;;;32.70;37.27
10115;BME280;5097;43.260;27.812;2023-06-22T14:09:13;100379.31;;;33.42;36.92
10115;BME280;5097;43.260;27.812;2023-06-22T14:11:57;100379.25;;;33.49;37.22
10115;BME280;5097;43.260;27.812;2023-06-22T14:14:41;100377.16;;;33.51;35.58
10115;BME280;5097;43.260;27.812;2023-06-22T14:17:25;100375.84;;;33.53;37.04
10115;BME280;5097;43.260;27.812;2023-06-22T14:20:10;100353.13;;;32.52;38.67
10115;BME280;5097;43.260;27.812;2023-06-22T14:22:54;100374.16;;;32.13;40.28